Cretcher, Missouri
Current Conditions -  °F | °C
As of 5:18 AM on Friday 24 Oct 2014 (Local Time) from KSZL Reporting Station
Overcast Overcast  
Wind Chill: 57°   Ceiling: 500
Heat Index: 57°   Visibility: 10mi
Dew Point: 55°   Wind: 9mph
Humidity: 94%   Direction: 230°SW
Pressure: 30.08"   Gusts: NA
Location:  38.9707°N, 93.4332°W
Report Text: KSZL 241018Z 23008KT 10SM OVC005 14/13 A3008 RMK AO2A
Loading
Personal Weather Stations






























Interactive Weather Map
Tropical Storm Tracking
New forecast layout! Learn more

10-Day Weather Forecast

Advertisements
Track Severe Weather on mobile